Irving South's Hourly Summary for Friday, April 14, 2017
Hour Temp
(f)
RH
(%)
Solar Rad.
(MJ/m2)
Rainfall
(in)
Wind
(mph)
4/14/2017 12:00 AM 68 59 0 0 0.03
4/14/2017 1:00 AM 68 58 0 0 0.8
4/14/2017 2:00 AM 70 50 0 0 3.54
4/14/2017 3:00 AM 69 50 0 0 3.86
4/14/2017 4:00 AM 68 57 0 0 3.33
4/14/2017 5:00 AM 67 61 0 0 3.48
4/14/2017 6:00 AM 66 68 0 0 2.17
4/14/2017 7:00 AM 66 73 0 0 0.6
4/14/2017 8:00 AM 65 75 0.1 0 0.12
4/14/2017 9:00 AM 66 74 0.25 0 0.93
4/14/2017 10:00 AM 67 70 0.5 0 2.58
4/14/2017 11:00 AM 68 66 0.68 0 2.77
4/14/2017 12:00 PM 72 53 2.03 0 3.5
4/14/2017 1:00 PM 74 43 2.55 0 3.77
4/14/2017 2:00 PM 76 40 3 0 5.02
4/14/2017 3:00 PM 78 37 3.21 0 5.62
4/14/2017 4:00 PM 78 38 2.42 0 5.04
4/14/2017 5:00 PM 80 37 2.25 0 4.74
4/14/2017 6:00 PM 80 39 0.94 0 3.62
4/14/2017 7:00 PM 78 42 0.56 0 2.16
4/14/2017 8:00 PM 75 44 0.12 0 1.21
4/14/2017 9:00 PM 72 49 0 0 0.15
4/14/2017 10:00 PM 70 53 0 0 0.03
4/14/2017 11:00 PM 69 59 0 0 0.07
Data Summary 71 53 18.61 0.00 2.46